createdAt,value
2018-08-30T00:00:22.912Z,62.20
2018-08-30T00:00:54.807Z,61.80
2018-08-30T00:01:26.703Z,62.30
2018-08-30T00:01:58.722Z,62.20
2018-08-30T00:02:30.563Z,61.60
2018-08-30T00:03:02.657Z,61.70
2018-08-30T00:03:34.486Z,61.90
2018-08-30T00:04:06.364Z,61.30
2018-08-30T00:04:38.225Z,61.70
2018-08-30T00:05:10.097Z,61.40
2018-08-30T00:05:42.104Z,61.30
2018-08-30T00:06:13.881Z,61.20
2018-08-30T00:06:45.736Z,61.40
2018-08-30T00:07:17.736Z,62.60
2018-08-30T00:07:49.593Z,62.00
2018-08-30T00:08:21.658Z,61.70
2018-08-30T00:08:53.448Z,62.00
2018-08-30T00:09:25.317Z,61.80
2018-08-30T00:09:57.196Z,61.90
2018-08-30T00:10:29.017Z,62.10
2018-08-30T00:11:00.919Z,61.90
2018-08-30T00:11:32.740Z,62.20
2018-08-30T00:12:04.553Z,61.90
2018-08-30T00:12:36.365Z,61.90
2018-08-30T00:13:08.217Z,61.90
2018-08-30T00:13:40.105Z,61.70
2018-08-30T00:14:11.964Z,61.90
2018-08-30T00:14:43.803Z,61.40
2018-08-30T00:15:15.840Z,61.10
2018-08-30T00:15:47.888Z,61.70
2018-08-30T00:16:19.693Z,61.20
2018-08-30T00:16:51.544Z,61.60
2018-08-30T00:17:23.378Z,61.80
2018-08-30T00:17:55.242Z,61.20
2018-08-30T00:18:27.204Z,61.30
2018-08-30T00:18:59.123Z,61.60
2018-08-30T00:19:30.944Z,61.50
2018-08-30T00:20:02.872Z,61.60
2018-08-30T00:20:34.744Z,61.30
2018-08-30T00:21:06.656Z,61.40
2018-08-30T00:21:38.611Z,61.40
2018-08-30T00:22:10.379Z,61.30
2018-08-30T00:22:42.336Z,61.30
2018-08-30T00:23:14.173Z,61.30
2018-08-30T00:23:46.141Z,61.20
2018-08-30T00:24:17.945Z,61.40
2018-08-30T00:24:49.729Z,61.40
2018-08-30T00:25:21.594Z,61.10
2018-08-30T00:25:53.553Z,61.20
2018-08-30T00:26:25.452Z,61.00
2018-08-30T00:26:57.529Z,61.30
2018-08-30T00:27:29.444Z,61.40
2018-08-30T00:28:01.340Z,61.50
2018-08-30T00:28:33.152Z,61.40
2018-08-30T00:29:04.954Z,61.50
2018-08-30T00:29:36.795Z,61.60
2018-08-30T00:30:08.926Z,61.70
2018-08-30T00:30:40.742Z,61.60
2018-08-30T00:31:12.765Z,61.60
2018-08-30T00:31:44.628Z,61.70
2018-08-30T00:32:16.470Z,61.90
2018-08-30T00:32:48.285Z,61.90
2018-08-30T00:33:20.164Z,61.90
2018-08-30T00:33:52.015Z,62.00
2018-08-30T00:34:23.807Z,62.00
2018-08-30T00:34:55.704Z,61.60
2018-08-30T00:35:27.592Z,62.70
2018-08-30T00:35:59.467Z,62.00
2018-08-30T00:36:31.275Z,61.90
2018-08-30T00:37:03.077Z,61.50
2018-08-30T00:37:35.046Z,61.50
2018-08-30T00:38:06.867Z,61.70
2018-08-30T00:38:38.667Z,61.50
2018-08-30T00:39:10.484Z,61.50
2018-08-30T00:39:42.267Z,61.60
2018-08-30T00:40:14.189Z,61.60
2018-08-30T00:40:46.126Z,61.60
2018-08-30T00:41:18.102Z,61.60
2018-08-30T00:41:50.064Z,61.60
2018-08-30T00:42:22.047Z,61.70
2018-08-30T00:42:53.848Z,61.80
2018-08-30T00:43:25.736Z,61.80
2018-08-30T00:43:57.519Z,61.90
2018-08-30T00:44:29.324Z,61.90
2018-08-30T00:45:01.146Z,61.90
2018-08-30T00:45:33.197Z,62.00
2018-08-30T00:46:05.084Z,62.00
2018-08-30T00:46:36.944Z,62.00
2018-08-30T00:47:09.009Z,62.10
2018-08-30T00:47:41.175Z,62.20
2018-08-30T00:48:13.029Z,62.10
2018-08-30T00:48:44.938Z,62.20
2018-08-30T00:49:17.007Z,63.00
2018-08-30T00:49:49.016Z,62.30
2018-08-30T00:50:20.828Z,62.20
2018-08-30T00:50:52.785Z,62.10
2018-08-30T00:51:24.732Z,62.20
2018-08-30T00:51:56.579Z,62.10
2018-08-30T00:52:28.395Z,62.10
2018-08-30T00:53:00.434Z,62.10
2018-08-30T00:53:32.311Z,62.10
2018-08-30T00:54:04.106Z,62.00
2018-08-30T00:54:36.040Z,61.80
2018-08-30T00:55:07.941Z,61.70
2018-08-30T00:55:39.807Z,61.90
2018-08-30T00:56:11.629Z,62.00
2018-08-30T00:56:43.451Z,62.00
2018-08-30T00:57:15.323Z,61.90
2018-08-30T00:57:47.159Z,61.70
2018-08-30T00:58:18.974Z,61.80
2018-08-30T00:58:50.808Z,61.70
2018-08-30T00:59:22.787Z,61.50
2018-08-30T00:59:54.580Z,61.40
2018-08-30T01:00:26.627Z,61.60
2018-08-30T01:00:58.516Z,61.50
2018-08-30T01:01:30.578Z,62.10
2018-08-30T01:02:02.507Z,61.90
2018-08-30T01:02:34.604Z,61.60
2018-08-30T01:03:06.585Z,61.40
2018-08-30T01:03:38.506Z,61.40
2018-08-30T01:04:10.400Z,61.30
2018-08-30T01:04:42.245Z,61.40
2018-08-30T01:05:14.085Z,62.00
2018-08-30T01:05:45.908Z,61.20
2018-08-30T01:06:17.795Z,61.30
2018-08-30T01:06:49.769Z,61.50
2018-08-30T01:07:21.859Z,61.50
2018-08-30T01:07:53.646Z,61.50
2018-08-30T01:08:25.617Z,61.70
2018-08-30T01:08:57.693Z,61.70
2018-08-30T01:09:29.550Z,61.80
2018-08-30T01:10:01.687Z,61.90
2018-08-30T01:10:33.555Z,61.80
2018-08-30T01:11:05.396Z,61.80
2018-08-30T01:11:37.465Z,62.50
2018-08-30T01:12:09.434Z,62.00
2018-08-30T01:12:41.407Z,61.70
2018-08-30T01:13:13.476Z,62.10
2018-08-30T01:13:45.448Z,62.00
2018-08-30T01:14:17.245Z,61.90
2018-08-30T01:14:49.055Z,62.70
2018-08-30T01:15:20.976Z,62.00
2018-08-30T01:15:52.759Z,62.20
2018-08-30T01:16:24.708Z,62.20
2018-08-30T01:16:56.514Z,62.90
2018-08-30T01:17:28.285Z,62.10
2018-08-30T01:18:00.087Z,62.10
2018-08-30T01:18:31.905Z,62.20
2018-08-30T01:19:03.700Z,62.30
2018-08-30T01:19:35.663Z,62.30
2018-08-30T01:20:07.439Z,62.30
2018-08-30T01:20:39.400Z,62.30
2018-08-30T01:21:11.207Z,62.30
2018-08-30T01:21:42.994Z,62.30
2018-08-30T01:22:14.797Z,62.30
2018-08-30T01:22:46.645Z,62.50
2018-08-30T01:23:18.684Z,62.10
2018-08-30T01:23:50.737Z,62.40
2018-08-30T01:24:22.547Z,62.30
2018-08-30T01:24:54.508Z,62.60
2018-08-30T01:25:26.497Z,62.70
2018-08-30T01:25:58.308Z,62.70
2018-08-30T01:26:30.073Z,62.70
2018-08-30T01:27:01.909Z,62.60
2018-08-30T01:27:33.739Z,62.70
2018-08-30T01:28:05.665Z,62.70
2018-08-30T01:28:37.556Z,62.70
2018-08-30T01:29:09.322Z,63.10
2018-08-30T01:29:41.203Z,62.80
2018-08-30T01:30:13.198Z,62.20
2018-08-30T01:30:45.164Z,62.50
2018-08-30T01:31:17.103Z,62.20
2018-08-30T01:31:49.142Z,62.50
2018-08-30T01:32:21.104Z,62.50
2018-08-30T01:32:53.032Z,62.50
2018-08-30T01:33:24.963Z,62.50
2018-08-30T01:33:56.875Z,62.50
2018-08-30T01:34:28.708Z,62.20
2018-08-30T01:35:00.741Z,62.40
2018-08-30T01:35:32.540Z,62.50
2018-08-30T01:36:04.521Z,62.70
2018-08-30T01:36:36.457Z,62.50
2018-08-30T01:37:08.340Z,62.80
2018-08-30T01:37:40.259Z,63.50
2018-08-30T01:38:12.120Z,62.80
2018-08-30T01:38:44.058Z,62.90
2018-08-30T01:39:16.027Z,62.80
2018-08-30T01:39:47.854Z,62.30
2018-08-30T01:40:19.819Z,62.50
2018-08-30T01:40:51.609Z,62.70
2018-08-30T01:41:23.682Z,62.80
2018-08-30T01:41:55.575Z,62.70
2018-08-30T01:42:27.396Z,62.80
2018-08-30T01:42:59.212Z,62.80
2018-08-30T01:43:31.125Z,62.70
2018-08-30T01:44:02.958Z,63.30
2018-08-30T01:44:34.915Z,62.80
2018-08-30T01:45:06.795Z,62.80
2018-08-30T01:45:38.661Z,63.00
2018-08-30T01:46:10.509Z,63.00
2018-08-30T01:46:42.362Z,63.00
2018-08-30T01:47:14.476Z,63.00
2018-08-30T01:47:46.293Z,63.20
2018-08-30T01:48:18.076Z,63.10
2018-08-30T01:48:49.893Z,63.00
2018-08-30T01:49:21.680Z,63.10
2018-08-30T01:49:53.523Z,63.00
2018-08-30T01:50:25.527Z,63.10
2018-08-30T01:50:57.788Z,63.00
2018-08-30T01:51:29.621Z,62.90
2018-08-30T01:52:01.443Z,63.70
2018-08-30T01:52:33.264Z,62.80
2018-08-30T01:53:05.062Z,62.90
2018-08-30T01:53:36.904Z,62.80
2018-08-30T01:54:08.868Z,62.80
2018-08-30T01:54:40.751Z,62.80
2018-08-30T01:55:12.761Z,62.40
2018-08-30T01:55:44.839Z,62.90
2018-08-30T01:56:16.840Z,62.70
2018-08-30T01:56:48.672Z,62.90
2018-08-30T01:57:20.532Z,62.60
2018-08-30T01:57:52.412Z,63.20
2018-08-30T01:58:24.407Z,61.90
2018-08-30T01:58:56.398Z,62.70
2018-08-30T01:59:28.177Z,62.50
2018-08-30T02:00:00.187Z,62.80
2018-08-30T02:00:32.080Z,62.90
2018-08-30T02:01:03.906Z,62.80
2018-08-30T02:01:35.770Z,62.40
2018-08-30T02:02:07.582Z,62.80
2018-08-30T02:02:39.435Z,62.50
2018-08-30T02:03:11.568Z,62.60
2018-08-30T02:03:43.476Z,62.50
2018-08-30T02:04:15.403Z,62.20
2018-08-30T02:04:47.234Z,62.40
2018-08-30T02:05:19.067Z,62.60
2018-08-30T02:05:50.858Z,62.60
2018-08-30T02:06:22.905Z,62.80
2018-08-30T02:06:54.816Z,62.80
2018-08-30T02:07:26.864Z,62.90
2018-08-30T02:07:58.843Z,63.00
2018-08-30T02:08:30.618Z,63.00
2018-08-30T02:09:02.563Z,62.90
2018-08-30T02:09:34.357Z,62.90
2018-08-30T02:10:06.154Z,62.50
2018-08-30T02:10:38.033Z,62.90
2018-08-30T02:11:10.036Z,62.80
2018-08-30T02:11:42.076Z,62.60
2018-08-30T02:12:13.982Z,62.50
2018-08-30T02:12:45.902Z,62.80
2018-08-30T02:13:17.921Z,62.70
2018-08-30T02:13:50.042Z,62.50
2018-08-30T02:14:21.854Z,61.80
2018-08-30T02:14:53.691Z,62.60
2018-08-30T02:15:25.563Z,62.40
2018-08-30T02:15:57.524Z,62.30
2018-08-30T02:16:29.410Z,62.40
2018-08-30T02:17:01.449Z,62.20
2018-08-30T02:17:33.297Z,62.20
2018-08-30T02:18:05.106Z,62.20
2018-08-30T02:18:36.933Z,62.40
2018-08-30T02:19:08.780Z,62.20
2018-08-30T02:19:40.840Z,61.70
2018-08-30T02:20:12.908Z,62.30
2018-08-30T02:20:44.762Z,61.90
2018-08-30T02:21:16.549Z,62.20
2018-08-30T02:21:48.389Z,62.30
2018-08-30T02:22:20.182Z,61.70
2018-08-30T02:22:52.039Z,61.80
2018-08-30T02:23:23.859Z,61.40
2018-08-30T02:23:56.138Z,62.60
2018-08-30T02:24:27.941Z,61.10
2018-08-30T02:24:59.752Z,61.40
2018-08-30T02:25:31.614Z,61.40
2018-08-30T02:26:03.491Z,62.00
2018-08-30T02:26:35.316Z,62.20
2018-08-30T02:27:07.219Z,61.70
2018-08-30T02:27:39.127Z,62.00
2018-08-30T02:28:11.147Z,61.80
2018-08-30T02:28:42.999Z,62.10
2018-08-30T02:29:15.098Z,62.10
2018-08-30T02:29:46.873Z,61.10
2018-08-30T02:30:18.658Z,61.70
2018-08-30T02:30:50.545Z,61.40
2018-08-30T02:31:22.385Z,61.60
2018-08-30T02:31:54.304Z,61.50
2018-08-30T02:32:26.171Z,62.10
2018-08-30T02:32:57.993Z,61.90
2018-08-30T02:33:29.795Z,61.30
2018-08-30T02:34:01.625Z,61.80
2018-08-30T02:34:33.432Z,61.90
2018-08-30T02:35:05.272Z,61.60
2018-08-30T02:35:37.046Z,61.40
2018-08-30T02:36:08.929Z,62.10
2018-08-30T02:36:40.823Z,62.20
2018-08-30T02:37:12.693Z,62.80
2018-08-30T02:37:44.532Z,62.00
2018-08-30T02:38:16.424Z,61.50
2018-08-30T02:38:48.344Z,62.00
2018-08-30T02:39:20.376Z,61.80
2018-08-30T02:39:52.264Z,61.90
2018-08-30T02:40:24.468Z,61.90
2018-08-30T02:40:56.315Z,61.40
2018-08-30T02:41:28.376Z,61.10
2018-08-30T02:42:00.387Z,61.30
2018-08-30T02:42:32.260Z,61.30
2018-08-30T02:43:04.058Z,61.60
2018-08-30T02:43:36.068Z,61.60
2018-08-30T02:44:07.904Z,61.50
2018-08-30T02:44:39.763Z,61.60
2018-08-30T02:45:11.637Z,61.60
2018-08-30T02:45:43.600Z,61.90
2018-08-30T02:46:15.548Z,62.00
2018-08-30T02:46:47.428Z,62.00
2018-08-30T02:47:19.412Z,61.50
2018-08-30T02:47:51.569Z,61.90
2018-08-30T02:48:23.388Z,61.80
2018-08-30T02:48:55.266Z,61.60
2018-08-30T02:49:27.287Z,61.50
2018-08-30T02:49:59.139Z,61.90
2018-08-30T02:50:31.209Z,61.90
2018-08-30T02:51:03.089Z,61.90
2018-08-30T02:51:34.920Z,61.60
2018-08-30T02:52:06.720Z,61.30
2018-08-30T02:52:38.618Z,62.00
2018-08-30T02:53:10.758Z,61.90
2018-08-30T02:53:42.605Z,62.00
2018-08-30T02:54:14.529Z,62.10
2018-08-30T02:54:46.310Z,62.40
2018-08-30T02:55:18.120Z,62.40
2018-08-30T02:55:49.920Z,62.60
2018-08-30T02:56:21.855Z,62.30
2018-08-30T02:56:53.676Z,63.20
2018-08-30T02:57:25.471Z,62.60
2018-08-30T02:57:57.305Z,62.50
2018-08-30T02:58:29.225Z,62.70
2018-08-30T02:59:01.271Z,62.70
2018-08-30T02:59:33.062Z,62.40
2018-08-30T03:00:04.993Z,62.60
2018-08-30T03:00:36.885Z,62.70
2018-08-30T03:01:08.667Z,62.60
2018-08-30T03:01:40.503Z,62.70
2018-08-30T03:02:12.372Z,62.60
2018-08-30T03:02:44.575Z,62.60
2018-08-30T03:03:16.362Z,62.60
2018-08-30T03:03:48.184Z,62.60
2018-08-30T03:04:20.296Z,62.50
2018-08-30T03:04:52.232Z,62.50
2018-08-30T03:05:24.162Z,62.50
2018-08-30T03:05:56.194Z,62.60
2018-08-30T03:06:28.092Z,62.60
2018-08-30T03:06:59.926Z,62.80
2018-08-30T03:07:31.963Z,62.80
2018-08-30T03:08:03.820Z,62.60
2018-08-30T03:08:35.743Z,62.90
2018-08-30T03:09:07.554Z,62.70
2018-08-30T03:09:39.496Z,63.60
2018-08-30T03:10:11.346Z,63.00
2018-08-30T03:10:43.195Z,62.90
2018-08-30T03:11:15.050Z,62.90
2018-08-30T03:11:47.018Z,63.10
2018-08-30T03:12:19.149Z,63.20
2018-08-30T03:12:51.012Z,63.30
2018-08-30T03:13:22.786Z,63.30
2018-08-30T03:13:54.585Z,63.30
2018-08-30T03:14:26.490Z,63.40
2018-08-30T03:14:58.464Z,63.20
2018-08-30T03:15:30.336Z,63.30
2018-08-30T03:16:02.147Z,63.40
2018-08-30T03:16:34.044Z,63.30
2018-08-30T03:17:05.956Z,64.00
2018-08-30T03:17:37.868Z,63.40
2018-08-30T03:18:09.709Z,63.40
2018-08-30T03:18:41.632Z,63.40
2018-08-30T03:19:13.577Z,63.30
2018-08-30T03:19:45.766Z,63.50
2018-08-30T03:20:17.714Z,63.40
2018-08-30T03:20:49.524Z,63.30
2018-08-30T03:21:21.382Z,63.30
2018-08-30T03:21:53.187Z,63.50
2018-08-30T03:22:25.037Z,63.50
2018-08-30T03:22:57.060Z,63.60
2018-08-30T03:23:29.165Z,63.70
2018-08-30T03:24:01.209Z,63.50
2018-08-30T03:24:32.960Z,64.30
2018-08-30T03:25:04.741Z,63.80
2018-08-30T03:25:36.669Z,63.70
2018-08-30T03:26:08.696Z,63.70
2018-08-30T03:26:40.505Z,63.70
2018-08-30T03:27:12.318Z,63.30
2018-08-30T03:27:44.247Z,63.50
2018-08-30T03:28:16.144Z,63.20
2018-08-30T03:28:47.936Z,63.00
2018-08-30T03:29:19.727Z,62.90
2018-08-30T03:29:51.659Z,63.00
2018-08-30T03:30:23.672Z,63.10
2018-08-30T03:30:55.700Z,63.40
2018-08-30T03:31:27.771Z,63.60
2018-08-30T03:31:59.731Z,63.50
2018-08-30T03:32:31.558Z,63.50
2018-08-30T03:33:03.400Z,63.60
2018-08-30T03:33:35.253Z,63.80
2018-08-30T03:34:07.153Z,63.90
2018-08-30T03:34:39.170Z,64.60
2018-08-30T03:35:11.011Z,63.80
2018-08-30T03:35:42.816Z,63.70
2018-08-30T03:36:14.679Z,63.90
2018-08-30T03:36:46.488Z,63.80
2018-08-30T03:37:18.312Z,63.90
2018-08-30T03:37:50.259Z,63.80
2018-08-30T03:38:22.108Z,63.90
2018-08-30T03:38:54.039Z,63.50
2018-08-30T03:39:26.020Z,63.40
2018-08-30T03:39:57.879Z,63.60
2018-08-30T03:40:29.660Z,63.60
2018-08-30T03:41:01.490Z,63.70
2018-08-30T03:41:33.337Z,63.70
2018-08-30T03:42:05.150Z,63.80
2018-08-30T03:42:37.150Z,64.00
2018-08-30T03:43:09.027Z,63.70
2018-08-30T03:43:40.828Z,63.90
2018-08-30T03:44:12.640Z,63.80
2018-08-30T03:44:44.433Z,64.30
2018-08-30T03:45:16.236Z,64.00
2018-08-30T03:45:48.285Z,63.90
2018-08-30T03:46:20.199Z,64.10
2018-08-30T03:46:52.079Z,64.20
2018-08-30T03:47:24.148Z,64.20
2018-08-30T03:47:55.929Z,64.20
2018-08-30T03:48:27.840Z,64.00
2018-08-30T03:48:59.722Z,64.00
2018-08-30T03:49:31.750Z,64.70
2018-08-30T03:50:03.572Z,63.80
2018-08-30T03:50:35.398Z,63.20
2018-08-30T03:51:07.241Z,64.00
2018-08-30T03:51:39.075Z,64.10
2018-08-30T03:52:10.920Z,64.10
2018-08-30T03:52:42.741Z,64.30
2018-08-30T03:53:14.541Z,64.10
2018-08-30T03:53:46.358Z,64.30
2018-08-30T03:54:18.184Z,64.30
2018-08-30T03:54:49.993Z,64.10
2018-08-30T03:55:21.871Z,64.40
2018-08-30T03:55:53.722Z,64.10
2018-08-30T03:56:25.522Z,64.50
2018-08-30T03:56:57.323Z,64.80
2018-08-30T03:57:29.212Z,64.70
2018-08-30T03:58:00.994Z,64.70
2018-08-30T03:58:32.782Z,64.10
2018-08-30T03:59:04.553Z,64.20
2018-08-30T03:59:36.366Z,63.30
2018-08-30T04:00:08.178Z,62.90
2018-08-30T04:00:39.979Z,63.30
2018-08-30T04:01:11.773Z,63.50
2018-08-30T04:01:43.669Z,63.80
2018-08-30T04:02:15.523Z,62.60
2018-08-30T04:02:47.505Z,63.30
2018-08-30T04:03:19.383Z,63.40
2018-08-30T04:03:51.235Z,63.50
2018-08-30T04:04:23.080Z,62.50
2018-08-30T04:04:55.187Z,63.10
2018-08-30T04:05:27.015Z,62.80
2018-08-30T04:05:59.245Z,62.80
2018-08-30T04:06:31.107Z,63.30
2018-08-30T04:07:02.943Z,63.20
2018-08-30T04:07:34.775Z,63.00
2018-08-30T04:08:06.725Z,62.70
2018-08-30T04:08:38.535Z,62.90
2018-08-30T04:09:10.307Z,62.50
2018-08-30T04:09:42.116Z,62.80
2018-08-30T04:10:13.944Z,62.90
2018-08-30T04:10:45.746Z,62.30
2018-08-30T04:11:17.744Z,62.40
2018-08-30T04:11:49.552Z,62.60
2018-08-30T04:12:21.384Z,62.30
2018-08-30T04:12:53.214Z,62.80
2018-08-30T04:13:25.120Z,63.00
2018-08-30T04:13:57.224Z,62.60
2018-08-30T04:14:29.094Z,63.00
2018-08-30T04:15:01.011Z,62.40
2018-08-30T04:15:32.883Z,63.10
2018-08-30T04:16:04.705Z,63.20
2018-08-30T04:16:36.578Z,63.40
2018-08-30T04:17:08.503Z,63.00
2018-08-30T04:17:40.315Z,63.70
2018-08-30T04:18:12.324Z,62.80
2018-08-30T04:18:44.106Z,63.40
2018-08-30T04:19:16.150Z,63.70
2018-08-30T04:19:48.024Z,64.10
2018-08-30T04:20:19.936Z,64.20
2018-08-30T04:20:51.955Z,64.40
2018-08-30T04:21:23.740Z,64.50
2018-08-30T04:21:55.682Z,64.50
2018-08-30T04:22:27.514Z,64.70
2018-08-30T04:22:59.365Z,64.80
2018-08-30T04:23:31.218Z,65.00
2018-08-30T04:24:03.156Z,65.10
2018-08-30T04:24:34.965Z,65.10
2018-08-30T04:25:06.806Z,65.20
2018-08-30T04:25:38.638Z,65.30
2018-08-30T04:26:10.479Z,65.30
2018-08-30T04:26:42.325Z,65.20
2018-08-30T04:27:14.227Z,65.60
2018-08-30T04:27:46.125Z,64.50
2018-08-30T04:28:17.952Z,65.70
2018-08-30T04:28:49.781Z,64.80
2018-08-30T04:29:21.649Z,65.20
2018-08-30T04:29:53.623Z,65.40
2018-08-30T04:30:25.614Z,65.50
2018-08-30T04:30:57.426Z,65.70
2018-08-30T04:31:29.230Z,65.80
2018-08-30T04:32:01.238Z,65.90
2018-08-30T04:32:33.066Z,65.90
2018-08-30T04:33:04.910Z,66.20
2018-08-30T04:33:36.736Z,66.50
2018-08-30T04:34:08.593Z,67.10
2018-08-30T04:34:40.456Z,66.90
2018-08-30T04:35:12.268Z,67.60
2018-08-30T04:35:44.295Z,67.80
2018-08-30T04:36:16.406Z,67.70
2018-08-30T04:36:48.422Z,67.90
2018-08-30T04:37:20.603Z,67.80
2018-08-30T04:37:52.669Z,67.90
2018-08-30T04:38:24.557Z,68.20
2018-08-30T04:38:56.475Z,68.40
2018-08-30T04:39:28.320Z,68.20
2018-08-30T04:40:00.259Z,68.50
2018-08-30T04:40:32.173Z,68.20
2018-08-30T04:41:04.177Z,67.90
2018-08-30T04:41:36.145Z,67.90
2018-08-30T04:42:08.088Z,67.70
2018-08-30T04:42:39.935Z,68.60
2018-08-30T04:43:11.932Z,67.60
2018-08-30T04:43:43.857Z,67.60
2018-08-30T04:44:15.921Z,67.60
2018-08-30T04:44:47.756Z,67.10
2018-08-30T04:45:19.637Z,67.20
2018-08-30T04:45:51.514Z,67.50
2018-08-30T04:46:23.339Z,67.60
2018-08-30T04:46:55.167Z,67.30
2018-08-30T04:47:27.018Z,67.20
2018-08-30T04:47:58.947Z,67.10
2018-08-30T04:48:30.726Z,67.20
2018-08-30T04:49:02.553Z,67.20
2018-08-30T04:49:34.509Z,66.90
2018-08-30T04:50:06.464Z,67.30
2018-08-30T04:50:38.610Z,67.10
2018-08-30T04:51:10.658Z,67.20
2018-08-30T04:51:42.458Z,67.30
2018-08-30T04:52:14.276Z,67.10
2018-08-30T04:52:46.181Z,67.10
2018-08-30T04:53:18.064Z,67.50
2018-08-30T04:53:50.081Z,66.80
2018-08-30T04:54:21.930Z,67.00
2018-08-30T04:54:53.912Z,66.80
2018-08-30T04:55:25.793Z,66.80
2018-08-30T04:55:57.760Z,66.20
2018-08-30T04:56:29.700Z,66.60
2018-08-30T04:57:02.278Z,67.50
2018-08-30T04:57:34.279Z,67.60
2018-08-30T04:58:06.076Z,66.70
2018-08-30T04:58:37.976Z,66.90
2018-08-30T04:59:10.207Z,66.80
2018-08-30T04:59:42.042Z,66.80
2018-08-30T05:00:13.916Z,66.40
2018-08-30T05:00:45.695Z,66.50
2018-08-30T05:01:17.641Z,66.70
2018-08-30T05:01:49.535Z,66.80
2018-08-30T05:02:21.642Z,66.50
2018-08-30T05:02:53.493Z,66.40
2018-08-30T05:03:25.315Z,66.50
2018-08-30T05:03:57.091Z,66.30
2018-08-30T05:04:28.959Z,66.90
2018-08-30T05:05:00.768Z,66.50
2018-08-30T05:05:32.656Z,66.20
2018-08-30T05:06:04.482Z,66.80
2018-08-30T05:06:36.473Z,66.00
2018-08-30T05:07:08.305Z,66.50
2018-08-30T05:07:40.131Z,66.40
2018-08-30T05:08:11.980Z,65.90
2018-08-30T05:08:43.877Z,65.80
2018-08-30T05:09:15.673Z,65.60
2018-08-30T05:09:47.529Z,65.70
2018-08-30T05:10:19.337Z,65.80
2018-08-30T05:10:51.130Z,65.70
2018-08-30T05:11:23.137Z,65.20
2018-08-30T05:11:54.988Z,65.70
2018-08-30T05:12:26.839Z,65.10
2018-08-30T05:12:58.715Z,66.60
2018-08-30T05:13:30.837Z,65.90
2018-08-30T05:14:02.645Z,65.60
2018-08-30T05:14:34.505Z,65.80
2018-08-30T05:15:06.467Z,65.60
2018-08-30T05:15:38.362Z,65.90
2018-08-30T05:16:10.261Z,65.80
2018-08-30T05:16:42.060Z,66.00
2018-08-30T05:17:14.034Z,65.70
2018-08-30T05:17:45.973Z,65.70
2018-08-30T05:18:18.006Z,65.50
2018-08-30T05:18:49.816Z,65.60
2018-08-30T05:19:22.039Z,65.30
2018-08-30T05:19:53.949Z,65.90
2018-08-30T05:20:25.854Z,65.10
2018-08-30T05:20:57.659Z,65.20
2018-08-30T05:21:29.492Z,65.10
2018-08-30T05:22:01.322Z,65.20
2018-08-30T05:22:33.326Z,65.20
2018-08-30T05:23:05.201Z,65.10
2018-08-30T05:23:37.254Z,65.40
2018-08-30T05:24:09.031Z,65.30
2018-08-30T05:24:41.109Z,65.40
2018-08-30T05:25:12.941Z,65.10
2018-08-30T05:25:44.874Z,65.30
2018-08-30T05:26:16.949Z,65.40
2018-08-30T05:26:48.783Z,65.50
2018-08-30T05:27:20.601Z,65.70
2018-08-30T05:27:52.691Z,65.40
2018-08-30T05:28:24.728Z,65.40
2018-08-30T05:28:56.569Z,65.30
2018-08-30T05:29:28.514Z,65.30
2018-08-30T05:30:00.585Z,65.70
2018-08-30T05:30:32.384Z,65.70
2018-08-30T05:31:04.214Z,65.40
2018-08-30T05:31:36.009Z,65.20
2018-08-30T05:32:07.868Z,65.40
2018-08-30T05:32:39.814Z,65.40
2018-08-30T05:33:11.730Z,65.60
2018-08-30T05:33:43.623Z,65.60
2018-08-30T05:34:15.484Z,65.40
2018-08-30T05:34:47.347Z,65.30
2018-08-30T05:35:19.187Z,65.30
2018-08-30T05:35:51.142Z,66.00
2018-08-30T05:36:23.370Z,65.60
2018-08-30T05:36:55.341Z,65.70
2018-08-30T05:37:27.167Z,65.70
2018-08-30T05:37:59.203Z,65.40
2018-08-30T05:38:31.013Z,65.40
2018-08-30T05:39:03.102Z,65.50
2018-08-30T05:39:34.950Z,65.80
2018-08-30T05:40:06.793Z,65.70
2018-08-30T05:40:38.649Z,65.70
2018-08-30T05:41:10.542Z,65.70
2018-08-30T05:41:42.356Z,65.50
2018-08-30T05:42:14.250Z,65.90
2018-08-30T05:42:46.219Z,65.50
2018-08-30T05:43:18.050Z,65.50
2018-08-30T05:43:49.901Z,66.10
2018-08-30T05:44:21.954Z,66.10
2018-08-30T05:44:54.361Z,65.70
2018-08-30T05:45:26.251Z,65.60
2018-08-30T05:45:58.104Z,65.70
2018-08-30T05:46:30.081Z,65.80
2018-08-30T05:47:02.251Z,65.80
2018-08-30T05:47:34.026Z,65.60
2018-08-30T05:48:05.851Z,65.80
2018-08-30T05:48:37.703Z,65.80
2018-08-30T05:49:09.910Z,65.70
2018-08-30T05:49:41.763Z,65.80
2018-08-30T05:50:13.644Z,65.80
2018-08-30T05:50:45.476Z,65.70
2018-08-30T05:51:17.532Z,66.10
2018-08-30T05:51:49.340Z,66.00
2018-08-30T05:52:21.191Z,65.80
2018-08-30T05:52:53.131Z,65.80
2018-08-30T05:53:25.111Z,65.70
2018-08-30T05:53:56.972Z,65.80
2018-08-30T05:54:29.015Z,66.10
2018-08-30T05:55:00.990Z,65.70
2018-08-30T05:55:33.015Z,65.60
2018-08-30T05:56:04.833Z,65.60
2018-08-30T05:56:36.918Z,65.90
2018-08-30T05:57:08.922Z,65.90
2018-08-30T05:57:40.711Z,65.80
2018-08-30T05:58:12.581Z,66.00
2018-08-30T05:58:44.441Z,65.80
2018-08-30T05:59:16.362Z,65.60
2018-08-30T05:59:48.168Z,65.80
2018-08-30T06:00:19.970Z,66.00
2018-08-30T06:00:51.864Z,65.70
2018-08-30T06:01:23.742Z,66.00
2018-08-30T06:01:55.603Z,65.90
2018-08-30T06:02:27.652Z,65.60
2018-08-30T06:02:59.530Z,65.60
2018-08-30T06:03:31.365Z,65.50
2018-08-30T06:04:03.175Z,65.50
2018-08-30T06:04:35.085Z,65.60
2018-08-30T06:05:06.920Z,65.60
2018-08-30T06:05:38.719Z,65.70
2018-08-30T06:06:10.641Z,65.60
2018-08-30T06:06:42.673Z,65.70
2018-08-30T06:07:14.668Z,65.60
2018-08-30T06:07:46.778Z,65.80
2018-08-30T06:08:18.712Z,65.60
2018-08-30T06:08:50.794Z,65.50
2018-08-30T06:09:22.746Z,65.70
2018-08-30T06:09:54.676Z,65.60
2018-08-30T06:10:26.668Z,65.70
2018-08-30T06:10:58.470Z,65.50
2018-08-30T06:11:30.275Z,65.50
2018-08-30T06:12:02.118Z,65.90
2018-08-30T06:12:33.914Z,65.50
2018-08-30T06:13:05.814Z,65.50
2018-08-30T06:13:37.820Z,66.40
2018-08-30T06:14:09.629Z,65.60
2018-08-30T06:14:41.615Z,65.50
2018-08-30T06:15:13.393Z,65.50
2018-08-30T06:15:45.264Z,65.70
2018-08-30T06:16:17.056Z,65.50
2018-08-30T06:16:48.933Z,65.70
2018-08-30T06:17:20.755Z,65.60
2018-08-30T06:17:52.812Z,65.50
2018-08-30T06:18:24.717Z,65.40
2018-08-30T06:18:56.575Z,65.40
2018-08-30T06:19:28.551Z,65.10
2018-08-30T06:20:00.513Z,65.20
2018-08-30T06:20:32.478Z,65.50
2018-08-30T06:21:04.393Z,65.30
2018-08-30T06:21:36.287Z,65.60
2018-08-30T06:22:08.223Z,65.80
2018-08-30T06:22:40.043Z,65.60
2018-08-30T06:23:12.080Z,65.50
2018-08-30T06:23:43.997Z,65.40
2018-08-30T06:24:15.906Z,65.30
2018-08-30T06:24:47.824Z,65.40
2018-08-30T06:25:19.681Z,65.20
2018-08-30T06:25:51.558Z,65.40
2018-08-30T06:26:23.504Z,65.60
2018-08-30T06:26:55.455Z,65.50
2018-08-30T06:27:27.457Z,65.50
2018-08-30T06:27:59.425Z,65.80
2018-08-30T06:28:31.302Z,65.60
2018-08-30T06:29:03.214Z,65.80
2018-08-30T06:29:35.066Z,65.50
2018-08-30T06:30:06.926Z,65.50
2018-08-30T06:30:38.796Z,65.60
2018-08-30T06:31:10.655Z,65.70
2018-08-30T06:31:42.636Z,65.70
2018-08-30T06:32:14.557Z,65.50
2018-08-30T06:32:46.435Z,65.50
2018-08-30T06:33:18.421Z,65.50
2018-08-30T06:33:50.233Z,65.50
2018-08-30T06:34:22.026Z,65.50
2018-08-30T06:34:54.107Z,66.00
2018-08-30T06:35:26.117Z,65.70
2018-08-30T06:35:57.968Z,65.70
2018-08-30T06:36:29.767Z,65.50
2018-08-30T06:37:01.628Z,65.60
2018-08-30T06:37:33.478Z,65.60
2018-08-30T06:38:05.331Z,65.90
2018-08-30T06:38:37.199Z,65.50
2018-08-30T06:39:09.196Z,65.60
2018-08-30T06:39:41.095Z,65.40
2018-08-30T06:40:13.078Z,65.70
2018-08-30T06:40:44.887Z,65.60
2018-08-30T06:41:16.948Z,65.70
2018-08-30T06:41:48.819Z,65.80
2018-08-30T06:42:20.826Z,65.80
2018-08-30T06:42:52.758Z,65.50
2018-08-30T06:43:24.670Z,65.80
2018-08-30T06:43:56.548Z,65.80
2018-08-30T06:44:28.619Z,65.80
2018-08-30T06:45:00.764Z,65.80
2018-08-30T06:45:32.718Z,66.80
2018-08-30T06:46:04.719Z,66.20
2018-08-30T06:46:36.569Z,65.90
2018-08-30T06:47:08.534Z,65.80
2018-08-30T06:47:40.583Z,65.80
2018-08-30T06:48:12.460Z,65.80
2018-08-30T06:48:44.346Z,65.70
2018-08-30T06:49:16.344Z,65.70
2018-08-30T06:49:48.261Z,65.80
2018-08-30T06:50:20.154Z,65.60
2018-08-30T06:50:52.088Z,65.50